sensor_id;sensor_type;location;lat;lon;timestamp;P1;durP1;ratioP1;P2;durP2;ratioP2
17864;SDS011;9058;52.018;4.202;2023-05-02T00:01:26;12.68;;;8.43;;
17864;SDS011;9058;52.018;4.202;2023-05-02T00:03:55;18.42;;;9.88;;
17864;SDS011;9058;52.018;4.202;2023-05-02T00:06:22;12.95;;;8.77;;
17864;SDS011;9058;52.018;4.202;2023-05-02T00:08:49;14.38;;;10.63;;
17864;SDS011;9058;52.018;4.202;2023-05-02T00:11:17;15.55;;;7.97;;
17864;SDS011;9058;52.018;4.202;2023-05-02T00:13:43;15.52;;;8.63;;
17864;SDS011;9058;52.018;4.202;2023-05-02T00:16:13;12.73;;;7.68;;
17864;SDS011;9058;52.018;4.202;2023-05-02T00:18:40;12.05;;;7.05;;
17864;SDS011;9058;52.018;4.202;2023-05-02T00:21:07;9.40;;;5.63;;
17864;SDS011;9058;52.018;4.202;2023-05-02T00:23:36;10.82;;;4.88;;
17864;SDS011;9058;52.018;4.202;2023-05-02T00:26:07;9.50;;;5.60;;
17864;SDS011;9058;52.018;4.202;2023-05-02T00:28:34;11.02;;;5.40;;
17864;SDS011;9058;52.018;4.202;2023-05-02T00:31:02;7.82;;;4.72;;
17864;SDS011;9058;52.018;4.202;2023-05-02T00:33:30;5.72;;;4.40;;
17864;SDS011;9058;52.018;4.202;2023-05-02T00:35:57;6.55;;;5.18;;
17864;SDS011;9058;52.018;4.202;2023-05-02T00:38:24;7.13;;;3.85;;
17864;SDS011;9058;52.018;4.202;2023-05-02T00:40:50;8.27;;;4.85;;
17864;SDS011;9058;52.018;4.202;2023-05-02T00:43:17;5.22;;;4.28;;
17864;SDS011;9058;52.018;4.202;2023-05-02T00:45:44;8.18;;;4.32;;
17864;SDS011;9058;52.018;4.202;2023-05-02T00:48:10;8.10;;;3.97;;
17864;SDS011;9058;52.018;4.202;2023-05-02T00:50:39;6.70;;;3.25;;
17864;SDS011;9058;52.018;4.202;2023-05-02T00:53:07;8.02;;;4.07;;
17864;SDS011;9058;52.018;4.202;2023-05-02T00:55:34;9.45;;;4.22;;
17864;SDS011;9058;52.018;4.202;2023-05-02T00:58:02;8.13;;;3.92;;
17864;SDS011;9058;52.018;4.202;2023-05-02T01:00:32;13.07;;;5.45;;
17864;SDS011;9058;52.018;4.202;2023-05-02T01:03:04;12.00;;;3.85;;
17864;SDS011;9058;52.018;4.202;2023-05-02T01:05:37;12.50;;;3.75;;
17864;SDS011;9058;52.018;4.202;2023-05-02T01:08:09;9.02;;;4.00;;
17864;SDS011;9058;52.018;4.202;2023-05-02T01:10:42;7.07;;;3.75;;
17864;SDS011;9058;52.018;4.202;2023-05-02T01:13:11;5.35;;;2.92;;
17864;SDS011;9058;52.018;4.202;2023-05-02T01:15:39;6.15;;;3.30;;
17864;SDS011;9058;52.018;4.202;2023-05-02T01:18:08;8.25;;;3.28;;
17864;SDS011;9058;52.018;4.202;2023-05-02T01:20:36;7.35;;;3.35;;
17864;SDS011;9058;52.018;4.202;2023-05-02T01:23:08;7.10;;;2.97;;
17864;SDS011;9058;52.018;4.202;2023-05-02T01:25:43;7.97;;;3.97;;
17864;SDS011;9058;52.018;4.202;2023-05-02T01:28:16;11.75;;;3.58;;
17864;SDS011;9058;52.018;4.202;2023-05-02T01:30:47;11.70;;;3.72;;
17864;SDS011;9058;52.018;4.202;2023-05-02T01:33:16;8.90;;;3.40;;
17864;SDS011;9058;52.018;4.202;2023-05-02T01:35:44;9.20;;;3.85;;
17864;SDS011;9058;52.018;4.202;2023-05-02T01:38:13;21.33;;;4.15;;
17864;SDS011;9058;52.018;4.202;2023-05-02T01:40:40;8.43;;;4.10;;
17864;SDS011;9058;52.018;4.202;2023-05-02T01:43:09;12.82;;;4.20;;
17864;SDS011;9058;52.018;4.202;2023-05-02T01:45:36;16.50;;;4.13;;
17864;SDS011;9058;52.018;4.202;2023-05-02T01:48:05;6.68;;;3.00;;
17864;SDS011;9058;52.018;4.202;2023-05-02T01:50:32;10.68;;;3.35;;
17864;SDS011;9058;52.018;4.202;2023-05-02T01:52:59;10.73;;;4.25;;
17864;SDS011;9058;52.018;4.202;2023-05-02T01:55:26;9.60;;;3.22;;
17864;SDS011;9058;52.018;4.202;2023-05-02T01:57:53;8.27;;;2.60;;
17864;SDS011;9058;52.018;4.202;2023-05-02T02:00:22;10.93;;;2.50;;
17864;SDS011;9058;52.018;4.202;2023-05-02T02:02:49;9.52;;;2.75;;
17864;SDS011;9058;52.018;4.202;2023-05-02T02:05:17;8.68;;;2.78;;
17864;SDS011;9058;52.018;4.202;2023-05-02T02:07:45;7.90;;;2.70;;
17864;SDS011;9058;52.018;4.202;2023-05-02T02:10:12;11.02;;;2.55;;
17864;SDS011;9058;52.018;4.202;2023-05-02T02:12:39;7.75;;;2.30;;
17864;SDS011;9058;52.018;4.202;2023-05-02T02:15:08;7.00;;;2.40;;
17864;SDS011;9058;52.018;4.202;2023-05-02T02:17:36;7.47;;;2.45;;
17864;SDS011;9058;52.018;4.202;2023-05-02T02:20:04;9.15;;;2.55;;
17864;SDS011;9058;52.018;4.202;2023-05-02T02:22:33;10.00;;;2.78;;
17864;SDS011;9058;52.018;4.202;2023-05-02T02:25:03;11.88;;;2.05;;
17864;SDS011;9058;52.018;4.202;2023-05-02T02:27:31;8.57;;;1.67;;
17864;SDS011;9058;52.018;4.202;2023-05-02T02:30:00;7.18;;;2.25;;
17864;SDS011;9058;52.018;4.202;2023-05-02T02:32:26;7.50;;;2.05;;
17864;SDS011;9058;52.018;4.202;2023-05-02T02:34:53;7.15;;;1.65;;
17864;SDS011;9058;52.018;4.202;2023-05-02T02:37:22;5.60;;;1.75;;
17864;SDS011;9058;52.018;4.202;2023-05-02T02:39:54;4.30;;;1.48;;
17864;SDS011;9058;52.018;4.202;2023-05-02T02:42:24;8.40;;;2.08;;
17864;SDS011;9058;52.018;4.202;2023-05-02T02:45:04;11.93;;;2.63;;
17864;SDS011;9058;52.018;4.202;2023-05-02T02:47:35;7.85;;;2.17;;
17864;SDS011;9058;52.018;4.202;2023-05-02T02:50:07;5.40;;;2.05;;
17864;SDS011;9058;52.018;4.202;2023-05-02T02:52:36;8.13;;;1.65;;
17864;SDS011;9058;52.018;4.202;2023-05-02T02:55:07;5.47;;;1.85;;
17864;SDS011;9058;52.018;4.202;2023-05-02T02:57:38;8.90;;;1.77;;
17864;SDS011;9058;52.018;4.202;2023-05-02T03:00:07;5.32;;;1.98;;
17864;SDS011;9058;52.018;4.202;2023-05-02T03:02:35;5.10;;;1.40;;
17864;SDS011;9058;52.018;4.202;2023-05-02T03:05:03;7.75;;;1.75;;
17864;SDS011;9058;52.018;4.202;2023-05-02T03:07:31;5.28;;;1.50;;
17864;SDS011;9058;52.018;4.202;2023-05-02T03:10:01;4.57;;;1.88;;
17864;SDS011;9058;52.018;4.202;2023-05-02T03:12:29;6.38;;;1.25;;
17864;SDS011;9058;52.018;4.202;2023-05-02T03:14:57;4.95;;;1.55;;
17864;SDS011;9058;52.018;4.202;2023-05-02T03:17:28;6.25;;;1.52;;
17864;SDS011;9058;52.018;4.202;2023-05-02T03:19:55;5.38;;;1.50;;
17864;SDS011;9058;52.018;4.202;2023-05-02T03:22:22;29.05;;;2.95;;
17864;SDS011;9058;52.018;4.202;2023-05-02T03:24:49;7.28;;;1.65;;
17864;SDS011;9058;52.018;4.202;2023-05-02T03:27:16;3.30;;;1.50;;
17864;SDS011;9058;52.018;4.202;2023-05-02T03:29:44;5.50;;;1.45;;
17864;SDS011;9058;52.018;4.202;2023-05-02T03:32:10;8.55;;;1.77;;
17864;SDS011;9058;52.018;4.202;2023-05-02T03:34:37;7.40;;;2.13;;
17864;SDS011;9058;52.018;4.202;2023-05-02T03:37:05;7.55;;;2.35;;
17864;SDS011;9058;52.018;4.202;2023-05-02T03:39:32;5.32;;;2.30;;
17864;SDS011;9058;52.018;4.202;2023-05-02T03:41:59;9.38;;;1.70;;
17864;SDS011;9058;52.018;4.202;2023-05-02T03:44:27;9.65;;;3.05;;
17864;SDS011;9058;52.018;4.202;2023-05-02T03:46:55;3.75;;;1.52;;
17864;SDS011;9058;52.018;4.202;2023-05-02T03:49:22;6.25;;;1.55;;
17864;SDS011;9058;52.018;4.202;2023-05-02T03:51:49;6.28;;;1.60;;
17864;SDS011;9058;52.018;4.202;2023-05-02T03:54:15;7.78;;;1.40;;
17864;SDS011;9058;52.018;4.202;2023-05-02T03:56:42;10.27;;;1.58;;
17864;SDS011;9058;52.018;4.202;2023-05-02T03:59:08;5.45;;;1.58;;
17864;SDS011;9058;52.018;4.202;2023-05-02T04:01:35;8.93;;;1.50;;
17864;SDS011;9058;52.018;4.202;2023-05-02T04:04:03;7.82;;;1.67;;
17864;SDS011;9058;52.018;4.202;2023-05-02T04:06:30;7.57;;;1.40;;
17864;SDS011;9058;52.018;4.202;2023-05-02T04:08:57;6.70;;;1.60;;
17864;SDS011;9058;52.018;4.202;2023-05-02T04:11:23;5.65;;;1.30;;
17864;SDS011;9058;52.018;4.202;2023-05-02T04:13:51;5.13;;;1.85;;
17864;SDS011;9058;52.018;4.202;2023-05-02T04:16:18;4.82;;;1.85;;
17864;SDS011;9058;52.018;4.202;2023-05-02T04:18:44;7.88;;;1.63;;
17864;SDS011;9058;52.018;4.202;2023-05-02T04:21:12;7.97;;;1.77;;
17864;SDS011;9058;52.018;4.202;2023-05-02T04:23:41;7.45;;;1.73;;
17864;SDS011;9058;52.018;4.202;2023-05-02T04:26:08;10.30;;;1.95;;
17864;SDS011;9058;52.018;4.202;2023-05-02T04:28:34;4.57;;;1.83;;
17864;SDS011;9058;52.018;4.202;2023-05-02T04:31:01;9.05;;;2.03;;
17864;SDS011;9058;52.018;4.202;2023-05-02T04:33:28;7.18;;;2.05;;
17864;SDS011;9058;52.018;4.202;2023-05-02T04:35:54;11.88;;;2.10;;
17864;SDS011;9058;52.018;4.202;2023-05-02T04:38:22;6.85;;;1.60;;
17864;SDS011;9058;52.018;4.202;2023-05-02T04:40:49;11.35;;;2.72;;
17864;SDS011;9058;52.018;4.202;2023-05-02T04:43:16;8.68;;;2.65;;
17864;SDS011;9058;52.018;4.202;2023-05-02T04:45:43;11.07;;;2.53;;
17864;SDS011;9058;52.018;4.202;2023-05-02T04:48:09;13.45;;;2.50;;
17864;SDS011;9058;52.018;4.202;2023-05-02T04:50:36;13.48;;;2.40;;
17864;SDS011;9058;52.018;4.202;2023-05-02T04:53:02;10.13;;;2.10;;
17864;SDS011;9058;52.018;4.202;2023-05-02T04:55:30;10.68;;;2.20;;
17864;SDS011;9058;52.018;4.202;2023-05-02T04:57:56;8.80;;;2.33;;
17864;SDS011;9058;52.018;4.202;2023-05-02T05:00:23;10.40;;;3.08;;
17864;SDS011;9058;52.018;4.202;2023-05-02T05:02:49;16.05;;;3.10;;
17864;SDS011;9058;52.018;4.202;2023-05-02T05:05:16;11.48;;;2.50;;
17864;SDS011;9058;52.018;4.202;2023-05-02T05:07:42;6.88;;;1.88;;
17864;SDS011;9058;52.018;4.202;2023-05-02T05:10:09;10.98;;;2.90;;
17864;SDS011;9058;52.018;4.202;2023-05-02T05:12:37;11.55;;;2.35;;
17864;SDS011;9058;52.018;4.202;2023-05-02T05:15:04;6.82;;;2.40;;
17864;SDS011;9058;52.018;4.202;2023-05-02T05:17:30;10.35;;;2.97;;
17864;SDS011;9058;52.018;4.202;2023-05-02T05:19:57;11.27;;;3.97;;
17864;SDS011;9058;52.018;4.202;2023-05-02T05:22:23;7.18;;;2.10;;
17864;SDS011;9058;52.018;4.202;2023-05-02T05:24:52;6.22;;;2.17;;
17864;SDS011;9058;52.018;4.202;2023-05-02T05:27:18;8.13;;;1.83;;
17864;SDS011;9058;52.018;4.202;2023-05-02T05:29:47;6.32;;;2.53;;
17864;SDS011;9058;52.018;4.202;2023-05-02T05:32:13;8.85;;;2.53;;
17864;SDS011;9058;52.018;4.202;2023-05-02T05:34:40;6.43;;;1.92;;
17864;SDS011;9058;52.018;4.202;2023-05-02T05:37:06;4.70;;;1.52;;
17864;SDS011;9058;52.018;4.202;2023-05-02T05:39:33;6.75;;;1.67;;
17864;SDS011;9058;52.018;4.202;2023-05-02T05:42:00;8.50;;;2.35;;
17864;SDS011;9058;52.018;4.202;2023-05-02T05:44:26;5.07;;;1.83;;
17864;SDS011;9058;52.018;4.202;2023-05-02T05:46:55;6.68;;;1.90;;
17864;SDS011;9058;52.018;4.202;2023-05-02T05:49:21;6.05;;;1.83;;
17864;SDS011;9058;52.018;4.202;2023-05-02T05:51:48;10.38;;;2.10;;
17864;SDS011;9058;52.018;4.202;2023-05-02T05:54:15;9.40;;;1.90;;
17864;SDS011;9058;52.018;4.202;2023-05-02T05:56:41;10.07;;;2.47;;
17864;SDS011;9058;52.018;4.202;2023-05-02T05:59:08;6.68;;;1.75;;
17864;SDS011;9058;52.018;4.202;2023-05-02T06:01:34;3.60;;;1.52;;
17864;SDS011;9058;52.018;4.202;2023-05-02T06:04:03;5.68;;;1.20;;
17864;SDS011;9058;52.018;4.202;2023-05-02T06:06:30;6.28;;;1.38;;
17864;SDS011;9058;52.018;4.202;2023-05-02T06:08:57;6.82;;;1.48;;
17864;SDS011;9058;52.018;4.202;2023-05-02T06:11:24;11.25;;;2.05;;
17864;SDS011;9058;52.018;4.202;2023-05-02T06:13:50;7.82;;;2.30;;
17864;SDS011;9058;52.018;4.202;2023-05-02T06:16:17;5.72;;;2.35;;
17864;SDS011;9058;52.018;4.202;2023-05-02T06:18:43;6.45;;;1.92;;
17864;SDS011;9058;52.018;4.202;2023-05-02T06:21:11;5.57;;;1.67;;
17864;SDS011;9058;52.018;4.202;2023-05-02T06:23:38;5.10;;;1.55;;
17864;SDS011;9058;52.018;4.202;2023-05-02T06:26:05;8.45;;;1.80;;
17864;SDS011;9058;52.018;4.202;2023-05-02T06:28:31;8.70;;;2.15;;
17864;SDS011;9058;52.018;4.202;2023-05-02T06:30:58;3.72;;;1.80;;
17864;SDS011;9058;52.018;4.202;2023-05-02T06:33:25;3.17;;;1.38;;
17864;SDS011;9058;52.018;4.202;2023-05-02T06:35:51;3.33;;;1.33;;
17864;SDS011;9058;52.018;4.202;2023-05-02T06:38:19;4.55;;;1.45;;
17864;SDS011;9058;52.018;4.202;2023-05-02T06:40:46;5.80;;;1.33;;
17864;SDS011;9058;52.018;4.202;2023-05-02T06:43:13;8.40;;;1.88;;
17864;SDS011;9058;52.018;4.202;2023-05-02T06:45:39;4.45;;;1.45;;
17864;SDS011;9058;52.018;4.202;2023-05-02T06:48:06;5.57;;;1.33;;
17864;SDS011;9058;52.018;4.202;2023-05-02T06:50:32;5.55;;;1.40;;
17864;SDS011;9058;52.018;4.202;2023-05-02T06:52:58;4.22;;;1.35;;
17864;SDS011;9058;52.018;4.202;2023-05-02T06:55:29;5.78;;;1.42;;
17864;SDS011;9058;52.018;4.202;2023-05-02T06:57:55;5.68;;;1.25;;
17864;SDS011;9058;52.018;4.202;2023-05-02T07:00:22;6.82;;;1.52;;
17864;SDS011;9058;52.018;4.202;2023-05-02T07:02:49;5.63;;;1.85;;
17864;SDS011;9058;52.018;4.202;2023-05-02T07:05:15;3.95;;;1.35;;
17864;SDS011;9058;52.018;4.202;2023-05-02T07:07:43;8.82;;;1.58;;
17864;SDS011;9058;52.018;4.202;2023-05-02T07:10:10;10.77;;;2.13;;
17864;SDS011;9058;52.018;4.202;2023-05-02T07:12:38;9.07;;;2.05;;
17864;SDS011;9058;52.018;4.202;2023-05-02T07:15:04;11.93;;;2.35;;
17864;SDS011;9058;52.018;4.202;2023-05-02T07:17:31;12.43;;;3.03;;
17864;SDS011;9058;52.018;4.202;2023-05-02T07:19:58;14.05;;;2.50;;
17864;SDS011;9058;52.018;4.202;2023-05-02T07:22:24;10.95;;;2.40;;
17864;SDS011;9058;52.018;4.202;2023-05-02T07:24:55;6.07;;;1.80;;
17864;SDS011;9058;52.018;4.202;2023-05-02T07:27:22;8.75;;;1.90;;
17864;SDS011;9058;52.018;4.202;2023-05-02T07:29:50;12.32;;;2.08;;
17864;SDS011;9058;52.018;4.202;2023-05-02T07:32:17;9.23;;;1.73;;
17864;SDS011;9058;52.018;4.202;2023-05-02T07:34:43;3.55;;;1.83;;
17864;SDS011;9058;52.018;4.202;2023-05-02T07:37:10;6.15;;;1.40;;
17864;SDS011;9058;52.018;4.202;2023-05-02T07:39:36;6.90;;;1.90;;
17864;SDS011;9058;52.018;4.202;2023-05-02T07:42:03;3.17;;;1.20;;
17864;SDS011;9058;52.018;4.202;2023-05-02T07:44:30;4.05;;;1.27;;
17864;SDS011;9058;52.018;4.202;2023-05-02T07:46:58;7.70;;;1.73;;
17864;SDS011;9058;52.018;4.202;2023-05-02T07:49:25;4.93;;;1.60;;
17864;SDS011;9058;52.018;4.202;2023-05-02T07:51:51;6.55;;;1.80;;
17864;SDS011;9058;52.018;4.202;2023-05-02T07:54:18;5.53;;;1.50;;
17864;SDS011;9058;52.018;4.202;2023-05-02T07:56:45;5.93;;;1.52;;
17864;SDS011;9058;52.018;4.202;2023-05-02T07:59:12;7.68;;;2.45;;
17864;SDS011;9058;52.018;4.202;2023-05-02T08:01:39;2.85;;;1.13;;
17864;SDS011;9058;52.018;4.202;2023-05-02T08:04:07;5.68;;;1.52;;
17864;SDS011;9058;52.018;4.202;2023-05-02T08:06:34;6.78;;;1.30;;
17864;SDS011;9058;52.018;4.202;2023-05-02T08:09:02;5.65;;;1.60;;
17864;SDS011;9058;52.018;4.202;2023-05-02T08:11:28;5.25;;;1.63;;
17864;SDS011;9058;52.018;4.202;2023-05-02T08:13:54;8.90;;;1.55;;
17864;SDS011;9058;52.018;4.202;2023-05-02T08:16:21;5.28;;;1.38;;
17864;SDS011;9058;52.018;4.202;2023-05-02T08:18:47;7.40;;;1.55;;
17864;SDS011;9058;52.018;4.202;2023-05-02T08:21:15;5.55;;;1.35;;
17864;SDS011;9058;52.018;4.202;2023-05-02T08:23:41;4.32;;;1.30;;
17864;SDS011;9058;52.018;4.202;2023-05-02T08:26:09;7.07;;;1.65;;
17864;SDS011;9058;52.018;4.202;2023-05-02T08:28:35;2.08;;;1.27;;
17864;SDS011;9058;52.018;4.202;2023-05-02T08:31:02;5.32;;;1.40;;
17864;SDS011;9058;52.018;4.202;2023-05-02T08:33:28;4.00;;;1.13;;
17864;SDS011;9058;52.018;4.202;2023-05-02T08:35:55;6.15;;;1.40;;
17864;SDS011;9058;52.018;4.202;2023-05-02T08:38:22;3.25;;;1.20;;
17864;SDS011;9058;52.018;4.202;2023-05-02T08:40:49;2.55;;;1.13;;
17864;SDS011;9058;52.018;4.202;2023-05-02T08:43:15;4.35;;;1.30;;
17864;SDS011;9058;52.018;4.202;2023-05-02T08:45:45;5.65;;;1.50;;
17864;SDS011;9058;52.018;4.202;2023-05-02T08:48:11;6.57;;;1.20;;
17864;SDS011;9058;52.018;4.202;2023-05-02T08:50:41;4.53;;;1.15;;
17864;SDS011;9058;52.018;4.202;2023-05-02T08:53:09;3.95;;;1.23;;
17864;SDS011;9058;52.018;4.202;2023-05-02T08:55:38;2.42;;;1.40;;
17864;SDS011;9058;52.018;4.202;2023-05-02T08:58:05;3.38;;;1.42;;
17864;SDS011;9058;52.018;4.202;2023-05-02T09:00:33;7.15;;;2.00;;
17864;SDS011;9058;52.018;4.202;2023-05-02T09:03:05;3.55;;;1.40;;
17864;SDS011;9058;52.018;4.202;2023-05-02T09:05:32;9.05;;;2.42;;
17864;SDS011;9058;52.018;4.202;2023-05-02T09:08:01;8.07;;;3.03;;
17864;SDS011;9058;52.018;4.202;2023-05-02T09:10:28;6.45;;;1.45;;
17864;SDS011;9058;52.018;4.202;2023-05-02T09:12:57;3.60;;;1.23;;
17864;SDS011;9058;52.018;4.202;2023-05-02T09:15:44;5.03;;;1.55;;
17864;SDS011;9058;52.018;4.202;2023-05-02T09:18:21;7.60;;;2.22;;
17864;SDS011;9058;52.018;4.202;2023-05-02T09:20:49;4.72;;;1.90;;
17864;SDS011;9058;52.018;4.202;2023-05-02T09:23:16;3.58;;;1.50;;
17864;SDS011;9058;52.018;4.202;2023-05-02T09:25:42;3.05;;;1.35;;
17864;SDS011;9058;52.018;4.202;2023-05-02T09:28:10;4.05;;;1.08;;
17864;SDS011;9058;52.018;4.202;2023-05-02T09:30:36;5.43;;;1.25;;
17864;SDS011;9058;52.018;4.202;2023-05-02T09:33:04;8.95;;;2.45;;
17864;SDS011;9058;52.018;4.202;2023-05-02T09:35:30;5.40;;;1.63;;
17864;SDS011;9058;52.018;4.202;2023-05-02T09:37:57;8.15;;;1.90;;
17864;SDS011;9058;52.018;4.202;2023-05-02T09:40:24;4.18;;;1.63;;
17864;SDS011;9058;52.018;4.202;2023-05-02T09:42:52;5.53;;;1.70;;
17864;SDS011;9058;52.018;4.202;2023-05-02T09:45:21;4.43;;;1.30;;
17864;SDS011;9058;52.018;4.202;2023-05-02T09:47:48;10.55;;;2.00;;
17864;SDS011;9058;52.018;4.202;2023-05-02T09:50:30;4.93;;;1.60;;
17864;SDS011;9058;52.018;4.202;2023-05-02T09:53:03;8.50;;;1.98;;
17864;SDS011;9058;52.018;4.202;2023-05-02T09:55:30;7.00;;;1.63;;
17864;SDS011;9058;52.018;4.202;2023-05-02T09:57:57;10.10;;;2.67;;
17864;SDS011;9058;52.018;4.202;2023-05-02T10:00:38;5.28;;;1.77;;
17864;SDS011;9058;52.018;4.202;2023-05-02T10:03:05;12.27;;;3.08;;
17864;SDS011;9058;52.018;4.202;2023-05-02T10:05:31;6.43;;;2.00;;
17864;SDS011;9058;52.018;4.202;2023-05-02T10:07:59;3.50;;;1.60;;
17864;SDS011;9058;52.018;4.202;2023-05-02T10:10:25;7.35;;;2.10;;
17864;SDS011;9058;52.018;4.202;2023-05-02T10:12:54;16.02;;;2.95;;
17864;SDS011;9058;52.018;4.202;2023-05-02T10:15:21;9.77;;;2.25;;
17864;SDS011;9058;52.018;4.202;2023-05-02T10:17:49;9.95;;;2.58;;
17864;SDS011;9058;52.018;4.202;2023-05-02T10:20:18;6.25;;;1.73;;
17864;SDS011;9058;52.018;4.202;2023-05-02T10:22:48;8.20;;;2.03;;
17864;SDS011;9058;52.018;4.202;2023-05-02T10:25:14;8.40;;;2.30;;
17864;SDS011;9058;52.018;4.202;2023-05-02T10:27:41;8.38;;;1.92;;
17864;SDS011;9058;52.018;4.202;2023-05-02T10:30:08;3.13;;;1.75;;
17864;SDS011;9058;52.018;4.202;2023-05-02T10:32:34;4.30;;;1.75;;
17864;SDS011;9058;52.018;4.202;2023-05-02T10:35:04;7.43;;;1.80;;
17864;SDS011;9058;52.018;4.202;2023-05-02T10:37:30;7.00;;;1.80;;
17864;SDS011;9058;52.018;4.202;2023-05-02T10:39:58;11.43;;;2.60;;
17864;SDS011;9058;52.018;4.202;2023-05-02T10:42:25;8.07;;;1.88;;
17864;SDS011;9058;52.018;4.202;2023-05-02T10:44:51;8.45;;;2.67;;
17864;SDS011;9058;52.018;4.202;2023-05-02T10:47:20;5.90;;;1.83;;
17864;SDS011;9058;52.018;4.202;2023-05-02T10:49:50;9.68;;;2.78;;
17864;SDS011;9058;52.018;4.202;2023-05-02T10:52:25;15.07;;;5.28;;
17864;SDS011;9058;52.018;4.202;2023-05-02T10:57:34;4.88;;;1.58;;
17864;SDS011;9058;52.018;4.202;2023-05-02T11:00:21;6.35;;;2.13;;
17864;SDS011;9058;52.018;4.202;2023-05-02T11:02:48;7.15;;;1.73;;
17864;SDS011;9058;52.018;4.202;2023-05-02T11:05:15;9.88;;;3.00;;
17864;SDS011;9058;52.018;4.202;2023-05-02T11:07:43;4.10;;;1.67;;
17864;SDS011;9058;52.018;4.202;2023-05-02T11:10:26;6.43;;;1.58;;
17864;SDS011;9058;52.018;4.202;2023-05-02T11:12:53;16.98;;;4.32;;
17864;SDS011;9058;52.018;4.202;2023-05-02T11:18:05;7.25;;;2.25;;
17864;SDS011;9058;52.018;4.202;2023-05-02T11:20:33;29.05;;;5.70;;
17864;SDS011;9058;52.018;4.202;2023-05-02T11:25:42;11.27;;;2.75;;
17864;SDS011;9058;52.018;4.202;2023-05-02T11:30:50;13.65;;;3.80;;
17864;SDS011;9058;52.018;4.202;2023-05-02T11:33:17;7.72;;;2.15;;
17864;SDS011;9058;52.018;4.202;2023-05-02T11:35:44;7.72;;;2.03;;
17864;SDS011;9058;52.018;4.202;2023-05-02T11:38:12;18.15;;;5.88;;
17864;SDS011;9058;52.018;4.202;2023-05-02T11:40:39;4.15;;;1.75;;
17864;SDS011;9058;52.018;4.202;2023-05-02T11:43:14;8.18;;;2.50;;
17864;SDS011;9058;52.018;4.202;2023-05-02T11:45:41;5.55;;;1.67;;
17864;SDS011;9058;52.018;4.202;2023-05-02T11:48:08;28.77;;;7.38;;
17864;SDS011;9058;52.018;4.202;2023-05-02T11:50:40;2.92;;;1.75;;
17864;SDS011;9058;52.018;4.202;2023-05-02T11:53:09;7.45;;;1.75;;
17864;SDS011;9058;52.018;4.202;2023-05-02T11:55:35;19.40;;;4.43;;
17864;SDS011;9058;52.018;4.202;2023-05-02T11:58:02;8.73;;;2.17;;
17864;SDS011;9058;52.018;4.202;2023-05-02T12:00:30;7.45;;;2.67;;
17864;SDS011;9058;52.018;4.202;2023-05-02T12:02:57;9.38;;;3.15;;
17864;SDS011;9058;52.018;4.202;2023-05-02T12:05:26;6.53;;;2.00;;
17864;SDS011;9058;52.018;4.202;2023-05-02T12:07:53;4.05;;;1.10;;
17864;SDS011;9058;52.018;4.202;2023-05-02T12:10:19;5.20;;;1.45;;
17864;SDS011;9058;52.018;4.202;2023-05-02T12:12:46;11.10;;;2.53;;
17864;SDS011;9058;52.018;4.202;2023-05-02T12:15:12;11.00;;;2.90;;
17864;SDS011;9058;52.018;4.202;2023-05-02T12:17:41;8.77;;;2.28;;
17864;SDS011;9058;52.018;4.202;2023-05-02T12:20:08;9.75;;;2.50;;
17864;SDS011;9058;52.018;4.202;2023-05-02T12:22:35;9.60;;;2.70;;
17864;SDS011;9058;52.018;4.202;2023-05-02T12:25:03;17.42;;;3.47;;
17864;SDS011;9058;52.018;4.202;2023-05-02T12:27:30;5.47;;;1.63;;
17864;SDS011;9058;52.018;4.202;2023-05-02T12:29:57;5.75;;;1.75;;
17864;SDS011;9058;52.018;4.202;2023-05-02T12:32:27;11.70;;;3.50;;
17864;SDS011;9058;52.018;4.202;2023-05-02T12:34:56;5.20;;;1.67;;
17864;SDS011;9058;52.018;4.202;2023-05-02T12:37:23;15.65;;;3.75;;
17864;SDS011;9058;52.018;4.202;2023-05-02T12:39:50;8.18;;;2.20;;
17864;SDS011;9058;52.018;4.202;2023-05-02T12:42:18;6.15;;;1.80;;
17864;SDS011;9058;52.018;4.202;2023-05-02T12:44:45;6.85;;;2.58;;
17864;SDS011;9058;52.018;4.202;2023-05-02T12:47:12;22.60;;;5.15;;
17864;SDS011;9058;52.018;4.202;2023-05-02T12:49:48;6.78;;;1.75;;
17864;SDS011;9058;52.018;4.202;2023-05-02T12:52:16;10.77;;;2.30;;
17864;SDS011;9058;52.018;4.202;2023-05-02T12:54:42;13.25;;;2.92;;
17864;SDS011;9058;52.018;4.202;2023-05-02T12:57:09;11.02;;;2.80;;
17864;SDS011;9058;52.018;4.202;2023-05-02T12:59:35;5.78;;;1.98;;
17864;SDS011;9058;52.018;4.202;2023-05-02T13:02:04;2.20;;;1.45;;
17864;SDS011;9058;52.018;4.202;2023-05-02T13:04:32;6.05;;;1.65;;
17864;SDS011;9058;52.018;4.202;2023-05-02T13:06:59;7.75;;;2.20;;
17864;SDS011;9058;52.018;4.202;2023-05-02T13:09:27;8.18;;;1.88;;
17864;SDS011;9058;52.018;4.202;2023-05-02T13:11:53;9.30;;;2.30;;
17864;SDS011;9058;52.018;4.202;2023-05-02T13:14:20;12.60;;;3.50;;
17864;SDS011;9058;52.018;4.202;2023-05-02T13:16:47;9.85;;;3.10;;
17864;SDS011;9058;52.018;4.202;2023-05-02T13:19:17;6.78;;;2.10;;
17864;SDS011;9058;52.018;4.202;2023-05-02T13:21:44;5.55;;;2.20;;
17864;SDS011;9058;52.018;4.202;2023-05-02T13:24:11;3.58;;;1.30;;
17864;SDS011;9058;52.018;4.202;2023-05-02T13:26:40;4.57;;;1.52;;
17864;SDS011;9058;52.018;4.202;2023-05-02T13:29:06;5.40;;;1.75;;
17864;SDS011;9058;52.018;4.202;2023-05-02T13:31:36;4.70;;;1.63;;
17864;SDS011;9058;52.018;4.202;2023-05-02T13:34:03;8.13;;;2.10;;
17864;SDS011;9058;52.018;4.202;2023-05-02T13:36:30;11.25;;;3.28;;
17864;SDS011;9058;52.018;4.202;2023-05-02T13:38:58;5.03;;;1.70;;
17864;SDS011;9058;52.018;4.202;2023-05-02T13:41:25;7.18;;;2.20;;
17864;SDS011;9058;52.018;4.202;2023-05-02T13:43:53;4.75;;;1.60;;
17864;SDS011;9058;52.018;4.202;2023-05-02T13:46:20;7.80;;;2.38;;
17864;SDS011;9058;52.018;4.202;2023-05-02T13:48:48;14.73;;;3.97;;
17864;SDS011;9058;52.018;4.202;2023-05-02T13:51:14;4.45;;;1.92;;
17864;SDS011;9058;52.018;4.202;2023-05-02T13:53:41;13.63;;;3.22;;
17864;SDS011;9058;52.018;4.202;2023-05-02T13:56:07;8.43;;;2.50;;
17864;SDS011;9058;52.018;4.202;2023-05-02T13:58:33;5.88;;;1.80;;
17864;SDS011;9058;52.018;4.202;2023-05-02T14:01:01;3.92;;;1.85;;
17864;SDS011;9058;52.018;4.202;2023-05-02T14:03:28;8.52;;;2.50;;
17864;SDS011;9058;52.018;4.202;2023-05-02T14:05:54;5.45;;;2.08;;
17864;SDS011;9058;52.018;4.202;2023-05-02T14:08:22;6.78;;;3.10;;
17864;SDS011;9058;52.018;4.202;2023-05-02T14:10:48;11.20;;;2.90;;
17864;SDS011;9058;52.018;4.202;2023-05-02T14:13:15;9.13;;;1.85;;
17864;SDS011;9058;52.018;4.202;2023-05-02T14:15:41;7.72;;;2.08;;
17864;SDS011;9058;52.018;4.202;2023-05-02T14:18:09;16.20;;;2.90;;
17864;SDS011;9058;52.018;4.202;2023-05-02T14:20:35;4.93;;;2.00;;
17864;SDS011;9058;52.018;4.202;2023-05-02T14:23:01;5.03;;;2.42;;
17864;SDS011;9058;52.018;4.202;2023-05-02T14:25:28;11.02;;;2.67;;
17864;SDS011;9058;52.018;4.202;2023-05-02T14:27:54;5.95;;;2.22;;
17864;SDS011;9058;52.018;4.202;2023-05-02T14:30:21;12.75;;;3.55;;
17864;SDS011;9058;52.018;4.202;2023-05-02T14:32:48;15.38;;;4.00;;
17864;SDS011;9058;52.018;4.202;2023-05-02T14:35:16;7.93;;;3.00;;
17864;SDS011;9058;52.018;4.202;2023-05-02T14:37:43;10.68;;;2.10;;
17864;SDS011;9058;52.018;4.202;2023-05-02T14:40:11;6.95;;;2.00;;
17864;SDS011;9058;52.018;4.202;2023-05-02T14:42:40;12.20;;;3.38;;
17864;SDS011;9058;52.018;4.202;2023-05-02T14:45:07;14.00;;;3.83;;
17864;SDS011;9058;52.018;4.202;2023-05-02T14:47:34;13.25;;;3.10;;
17864;SDS011;9058;52.018;4.202;2023-05-02T14:50:01;6.38;;;2.88;;
17864;SDS011;9058;52.018;4.202;2023-05-02T14:52:29;6.15;;;2.25;;
17864;SDS011;9058;52.018;4.202;2023-05-02T14:54:58;4.40;;;1.80;;
17864;SDS011;9058;52.018;4.202;2023-05-02T14:57:24;6.63;;;2.08;;
17864;SDS011;9058;52.018;4.202;2023-05-02T14:59:51;7.03;;;2.10;;
17864;SDS011;9058;52.018;4.202;2023-05-02T15:02:17;10.05;;;3.30;;
17864;SDS011;9058;52.018;4.202;2023-05-02T15:04:45;5.00;;;1.90;;
17864;SDS011;9058;52.018;4.202;2023-05-02T15:07:12;7.82;;;2.05;;
17864;SDS011;9058;52.018;4.202;2023-05-02T15:09:39;5.40;;;2.08;;
17864;SDS011;9058;52.018;4.202;2023-05-02T15:12:08;8.02;;;2.63;;